Airfield :
LOGIN :

Register | Disclaimer

   EN    FR    IT 

 










Legend :    VFR   Marginal VFR   IFR   Intensive IFR   Very Intensive IFR
Visi :
Ceiling :
>= 8 km
>= 3000ft
5 to 8 km
1000 to 3000 ft
1500m to 5 km
500 to 1000 ft
800 to 1500m
200 to 500 ft
< 800m
< 200 ft
Symbols :   Thunderstorms  Fog  Heavy snow  Heavy precipitations  Wind > 20 kt
SIGMETs :     Misc.  Thunderstorms  Icing  Turbulence  Mountain Waves  Volcanic Ashes







- Airport Elevation : 147 ft
- IATA code : DUS


EDDL - Düsseldorf Int.

CURRENT METAR :
  • 260650Z 28006KT 240V310 9999 -SHRA FEW009 BKN019CB 07/06 Q1015 RESHRA NOSIG

EXPIRED METARs :
  • 260620Z 30008KT 9999 4500NE SHRA FEW018 BKN022CB 07/05 Q1015 BECMG 9999 NSW
  • 260550Z 24013KT 210V310 9999 SHRA FEW018 BKN024TCU BKN048 08/05 Q1015 BECMG NSW
  • 260520Z 23013KT 9999 -SHRA FEW018 BKN022TCU 09/06 Q1014 TEMPO SHRA
  • 260450Z 23013KT 9999 SCT024TCU BKN048 09/05 Q1014 TEMPO SHRA
  • 260420Z 23013KT 9999 FEW018 SCT028 BKN052 09/05 Q1014 NOSIG

TAF TAF EDDL
Valid from the 26 at 06:00 until the 27 at 12:00 UTC


260500Z 2606/2712 24013KT 9999 BKN030
PROB40
TEMPO 2606/2609 27015G25KT SHRA BKN015CB
TEMPO 2609/2614 26015G25KT
PROB30
TEMPO 2614/2618 26015G25KT SHRA BKN030CB
BECMG 2618/2621 24006KT
BECMG 2621/2624 14005KT
BECMG 2709/2712 14010KT
No reported NOTAMs for that airfield.



MET'MAP, your aeronautical weather chart ! - Copyright ORBIFLY December 2007 - Disclaimer

ORBIFLY MET'MAP TEAM :

Programming & Development : Alexandra Zaïnal
Concept & Development : Baudouin d'Aumeries
Co-Development & Prog : Marc-Olivier Méhu
Technical & hardware support : Manuel Goepfert

Contact : metmap@orbifly.com




SOURCES & CREDITS :

   NOAA